sensor_id;sensor_type;location;lat;lon;timestamp;pressure;altitude;pressure_sealevel;temperature;humidity
75699;BME280;64313;51.018;13.742;2023-03-14T00:00:52;97683.34;;;11.18;81.82
75699;BME280;64313;51.018;13.742;2023-03-14T00:03:17;97669.19;;;11.17;81.56
75699;BME280;64313;51.018;13.742;2023-03-14T00:05:43;97661.66;;;11.14;81.74
75699;BME280;64313;51.018;13.742;2023-03-14T00:08:08;97656.81;;;11.11;81.78
75699;BME280;64313;51.018;13.742;2023-03-14T00:10:35;97650.94;;;11.09;81.80
75699;BME280;64313;51.018;13.742;2023-03-14T00:13:01;97646.91;;;11.07;81.54
75699;BME280;64313;51.018;13.742;2023-03-14T00:15:26;97625.75;;;11.05;81.64
75699;BME280;64313;51.018;13.742;2023-03-14T00:17:52;97619.03;;;11.02;82.09
75699;BME280;64313;51.018;13.742;2023-03-14T00:20:17;97613.13;;;11.00;81.67
75699;BME280;64313;51.018;13.742;2023-03-14T00:22:43;97608.31;;;10.97;81.64
75699;BME280;64313;51.018;13.742;2023-03-14T00:25:10;97613.38;;;10.94;81.73
75699;BME280;64313;51.018;13.742;2023-03-14T00:27:36;97609.34;;;10.91;82.16
75699;BME280;64313;51.018;13.742;2023-03-14T00:30:02;97610.88;;;10.87;82.21
75699;BME280;64313;51.018;13.742;2023-03-14T00:32:28;97603.63;;;10.82;82.00
75699;BME280;64313;51.018;13.742;2023-03-14T00:34:53;97603.06;;;10.80;82.10
75699;BME280;64313;51.018;13.742;2023-03-14T00:37:18;97613.19;;;10.78;82.36
75699;BME280;64313;51.018;13.742;2023-03-14T00:39:44;97619.03;;;10.75;82.37
75699;BME280;64313;51.018;13.742;2023-03-14T00:42:09;97644.41;;;10.73;82.20
75699;BME280;64313;51.018;13.742;2023-03-14T00:44:35;97642.81;;;10.72;82.22
75699;BME280;64313;51.018;13.742;2023-03-14T00:47:00;97635.84;;;10.71;82.69
75699;BME280;64313;51.018;13.742;2023-03-14T00:49:25;97635.84;;;10.71;82.18
75699;BME280;64313;51.018;13.742;2023-03-14T00:51:51;97633.66;;;10.68;82.60
75699;BME280;64313;51.018;13.742;2023-03-14T00:54:17;97633.09;;;10.66;82.77
75699;BME280;64313;51.018;13.742;2023-03-14T00:56:43;97630.69;;;10.64;82.69
75699;BME280;64313;51.018;13.742;2023-03-14T00:59:08;97630.94;;;10.63;82.53
75699;BME280;64313;51.018;13.742;2023-03-14T01:01:34;97644.31;;;10.63;82.12
75699;BME280;64313;51.018;13.742;2023-03-14T01:03:59;97636.28;;;10.63;82.39
75699;BME280;64313;51.018;13.742;2023-03-14T01:06:27;97637.34;;;10.61;82.24
75699;BME280;64313;51.018;13.742;2023-03-14T01:08:53;97640.81;;;10.62;82.59
75699;BME280;64313;51.018;13.742;2023-03-14T01:11:23;97639.22;;;10.61;82.42
75699;BME280;64313;51.018;13.742;2023-03-14T01:13:49;97643.75;;;10.60;82.30
75699;BME280;64313;51.018;13.742;2023-03-14T01:16:16;97648.84;;;10.62;81.66
75699;BME280;64313;51.018;13.742;2023-03-14T01:18:44;97632.81;;;10.62;81.61
75699;BME280;64313;51.018;13.742;2023-03-14T01:21:14;97623.72;;;10.63;81.56
75699;BME280;64313;51.018;13.742;2023-03-14T01:23:41;97606.91;;;10.63;81.56
75699;BME280;64313;51.018;13.742;2023-03-14T01:26:09;97606.91;;;10.63;81.13
75699;BME280;64313;51.018;13.742;2023-03-14T01:28:36;97619.22;;;10.64;81.25
75699;BME280;64313;51.018;13.742;2023-03-14T01:31:06;97603.97;;;10.64;81.46
75699;BME280;64313;51.018;13.742;2023-03-14T01:33:32;97617.91;;;10.66;81.22
75699;BME280;64313;51.018;13.742;2023-03-14T01:35:58;97616.03;;;10.67;81.04
75699;BME280;64313;51.018;13.742;2023-03-14T01:38:23;97624.84;;;10.67;81.03
75699;BME280;64313;51.018;13.742;2023-03-14T01:40:48;97626.78;;;10.72;80.69
75699;BME280;64313;51.018;13.742;2023-03-14T01:43:19;97625.47;;;10.74;80.74
75699;BME280;64313;51.018;13.742;2023-03-14T01:46:15;97640.19;;;10.77;80.12
75699;BME280;64313;51.018;13.742;2023-03-14T01:48:51;97626.56;;;10.78;80.36
75699;BME280;64313;51.018;13.742;2023-03-14T01:53:53;97613.50;;;10.82;79.89
75699;BME280;64313;51.018;13.742;2023-03-14T01:56:21;97600.72;;;10.84;79.70
75699;BME280;64313;51.018;13.742;2023-03-14T01:58:48;97610.59;;;10.83;79.49
75699;BME280;64313;51.018;13.742;2023-03-14T02:01:18;97613.81;;;10.86;79.31
75699;BME280;64313;51.018;13.742;2023-03-14T02:03:53;97614.34;;;10.88;78.68
75699;BME280;64313;51.018;13.742;2023-03-14T02:06:23;97606.09;;;10.89;78.19
75699;BME280;64313;51.018;13.742;2023-03-14T02:08:50;97605.31;;;10.89;78.45
75699;BME280;64313;51.018;13.742;2023-03-14T02:11:21;97597.00;;;10.90;78.29
75699;BME280;64313;51.018;13.742;2023-03-14T02:14:01;97601.56;;;10.90;77.92
75699;BME280;64313;51.018;13.742;2023-03-14T02:16:52;97594.09;;;10.92;78.22
75699;BME280;64313;51.018;13.742;2023-03-14T02:22:42;97590.88;;;10.90;78.05
75699;BME280;64313;51.018;13.742;2023-03-14T02:25:16;97587.38;;;10.89;77.61
75699;BME280;64313;51.018;13.742;2023-03-14T02:27:47;97588.44;;;10.88;77.78
75699;BME280;64313;51.018;13.742;2023-03-14T02:30:23;97582.56;;;10.86;77.50
75699;BME280;64313;51.018;13.742;2023-03-14T02:32:53;97580.69;;;10.87;77.48
75699;BME280;64313;51.018;13.742;2023-03-14T02:35:27;97579.06;;;10.86;76.73
75699;BME280;64313;51.018;13.742;2023-03-14T02:37:57;97580.41;;;10.88;77.04
75699;BME280;64313;51.018;13.742;2023-03-14T02:40:31;97574.28;;;10.88;75.89
75699;BME280;64313;51.018;13.742;2023-03-14T02:42:56;97576.13;;;10.87;76.50
75699;BME280;64313;51.018;13.742;2023-03-14T02:47:54;97582.28;;;10.88;76.22
75699;BME280;64313;51.018;13.742;2023-03-14T02:50:24;97591.94;;;10.89;76.06
75699;BME280;64313;51.018;13.742;2023-03-14T02:52:53;97597.00;;;10.90;75.87
75699;BME280;64313;51.018;13.742;2023-03-14T02:55:22;97590.06;;;10.89;75.57
75699;BME280;64313;51.018;13.742;2023-03-14T02:57:49;97595.13;;;10.91;75.20
75699;BME280;64313;51.018;13.742;2023-03-14T03:00:16;97591.41;;;10.92;75.28
75699;BME280;64313;51.018;13.742;2023-03-14T03:02:42;97591.16;;;10.93;75.24
75699;BME280;64313;51.018;13.742;2023-03-14T03:05:08;97578.06;;;10.92;74.69
75699;BME280;64313;51.018;13.742;2023-03-14T03:07:33;97585.56;;;10.95;74.63
75699;BME280;64313;51.018;13.742;2023-03-14T03:09:59;97561.50;;;10.95;74.74
75699;BME280;64313;51.018;13.742;2023-03-14T03:12:24;97555.09;;;10.96;74.71
75699;BME280;64313;51.018;13.742;2023-03-14T03:14:49;97564.97;;;10.95;74.87
75699;BME280;64313;51.018;13.742;2023-03-14T03:17:15;97550.56;;;10.96;73.14
75699;BME280;64313;51.018;13.742;2023-03-14T03:19:40;97552.97;;;10.98;74.32
75699;BME280;64313;51.018;13.742;2023-03-14T03:22:06;97556.44;;;10.98;73.51
75699;BME280;64313;51.018;13.742;2023-03-14T03:24:32;97555.41;;;10.99;73.81
75699;BME280;64313;51.018;13.742;2023-03-14T03:26:57;97554.31;;;11.00;74.00
75699;BME280;64313;51.018;13.742;2023-03-14T03:29:23;97564.22;;;11.00;73.22
75699;BME280;64313;51.018;13.742;2023-03-14T03:31:49;97555.97;;;11.01;73.92
75699;BME280;64313;51.018;13.742;2023-03-14T03:34:15;97556.75;;;11.02;73.20
75699;BME280;64313;51.018;13.742;2023-03-14T03:36:41;97567.19;;;11.03;73.13
75699;BME280;64313;51.018;13.742;2023-03-14T03:39:07;97565.06;;;11.05;73.21
75699;BME280;64313;51.018;13.742;2023-03-14T03:41:33;97577.63;;;11.05;72.42
75699;BME280;64313;51.018;13.742;2023-03-14T03:43:59;97585.41;;;11.07;73.28
75699;BME280;64313;51.018;13.742;2023-03-14T03:46:25;97583.78;;;11.05;73.04
75699;BME280;64313;51.018;13.742;2023-03-14T03:48:55;97576.81;;;11.04;72.24
75699;BME280;64313;51.018;13.742;2023-03-14T03:51:20;97578.69;;;11.04;72.56
75699;BME280;64313;51.018;13.742;2023-03-14T03:53:47;97578.94;;;11.02;72.92
75699;BME280;64313;51.018;13.742;2023-03-14T03:56:16;97572.78;;;11.02;72.37
75699;BME280;64313;51.018;13.742;2023-03-14T03:58:43;97578.13;;;11.02;72.87
75699;BME280;64313;51.018;13.742;2023-03-14T04:01:10;97562.63;;;10.99;72.54
75699;BME280;64313;51.018;13.742;2023-03-14T04:03:36;97557.75;;;10.96;72.52
75699;BME280;64313;51.018;13.742;2023-03-14T04:06:12;97557.47;;;10.92;73.04
75699;BME280;64313;51.018;13.742;2023-03-14T04:08:39;97566.28;;;10.93;73.28
75699;BME280;64313;51.018;13.742;2023-03-14T04:11:07;97562.03;;;10.92;72.74
75699;BME280;64313;51.018;13.742;2023-03-14T04:13:50;97566.06;;;10.94;71.74
75699;BME280;64313;51.018;13.742;2023-03-14T04:16:24;97571.91;;;10.91;71.98
75699;BME280;64313;51.018;13.742;2023-03-14T04:18:53;97567.59;;;10.90;72.60
75699;BME280;64313;51.018;13.742;2023-03-14T04:21:20;97579.94;;;10.91;72.71
75699;BME280;64313;51.018;13.742;2023-03-14T04:23:49;97572.94;;;10.90;72.28
75699;BME280;64313;51.018;13.742;2023-03-14T04:26:16;97570.56;;;10.89;72.64
75699;BME280;64313;51.018;13.742;2023-03-14T04:28:43;97567.88;;;10.89;72.65
75699;BME280;64313;51.018;13.742;2023-03-14T04:31:11;97581.50;;;10.87;71.68
75699;BME280;64313;51.018;13.742;2023-03-14T04:33:37;97570.78;;;10.87;72.34
75699;BME280;64313;51.018;13.742;2023-03-14T04:36:04;97566.53;;;10.86;72.60
75699;BME280;64313;51.018;13.742;2023-03-14T04:38:30;97561.41;;;10.85;72.17
75699;BME280;64313;51.018;13.742;2023-03-14T04:40:56;97569.94;;;10.81;72.41
75699;BME280;64313;51.018;13.742;2023-03-14T04:43:26;97551.50;;;10.80;71.96
75699;BME280;64313;51.018;13.742;2023-03-14T04:45:57;97554.16;;;10.80;72.24
75699;BME280;64313;51.018;13.742;2023-03-14T04:48:24;97555.47;;;10.77;71.89
75699;BME280;64313;51.018;13.742;2023-03-14T04:50:50;97543.97;;;10.77;72.16
75699;BME280;64313;51.018;13.742;2023-03-14T04:53:17;97546.09;;;10.75;71.92
75699;BME280;64313;51.018;13.742;2023-03-14T04:55:49;97540.75;;;10.75;72.22
75699;BME280;64313;51.018;13.742;2023-03-14T04:58:15;97545.53;;;10.73;72.02
75699;BME280;64313;51.018;13.742;2023-03-14T05:00:42;97550.31;;;10.71;72.07
75699;BME280;64313;51.018;13.742;2023-03-14T05:03:26;97549.81;;;10.69;71.09
75699;BME280;64313;51.018;13.742;2023-03-14T05:06:12;97538.84;;;10.70;71.78
75699;BME280;64313;51.018;13.742;2023-03-14T05:08:48;97534.56;;;10.69;71.24
75699;BME280;64313;51.018;13.742;2023-03-14T05:11:37;97536.44;;;10.69;70.87
75699;BME280;64313;51.018;13.742;2023-03-14T05:14:11;97528.66;;;10.67;71.16
75699;BME280;64313;51.018;13.742;2023-03-14T05:16:54;97527.88;;;10.67;70.93
75699;BME280;64313;51.018;13.742;2023-03-14T05:19:43;97542.53;;;10.64;71.58
75699;BME280;64313;51.018;13.742;2023-03-14T05:22:26;97548.44;;;10.66;71.24
75699;BME280;64313;51.018;13.742;2023-03-14T05:25:06;97548.44;;;10.66;70.56
75699;BME280;64313;51.018;13.742;2023-03-14T05:27:44;97539.88;;;10.64;70.64
75699;BME280;64313;51.018;13.742;2023-03-14T05:30:35;97543.34;;;10.65;70.49
75699;BME280;64313;51.018;13.742;2023-03-14T05:33:06;97550.56;;;10.64;70.59
75699;BME280;64313;51.018;13.742;2023-03-14T05:35:38;97548.13;;;10.63;71.08
75699;BME280;64313;51.018;13.742;2023-03-14T05:38:12;97528.38;;;10.64;70.38
75699;BME280;64313;51.018;13.742;2023-03-14T05:40:59;97537.19;;;10.64;70.26
75699;BME280;64313;51.018;13.742;2023-03-14T05:43:47;97532.88;;;10.63;70.63
75699;BME280;64313;51.018;13.742;2023-03-14T05:46:38;97519.53;;;10.63;70.22
75699;BME280;64313;51.018;13.742;2023-03-14T05:49:21;97519.81;;;10.61;70.54
75699;BME280;64313;51.018;13.742;2023-03-14T05:52:06;97524.34;;;10.61;70.41
75699;BME280;64313;51.018;13.742;2023-03-14T05:54:46;97516.06;;;10.63;70.49
75699;BME280;64313;51.018;13.742;2023-03-14T05:57:48;97515.25;;;10.62;70.48
75699;BME280;64313;51.018;13.742;2023-03-14T06:00:41;97517.13;;;10.61;70.13
75699;BME280;64313;51.018;13.742;2023-03-14T06:03:36;97507.50;;;10.60;69.89
75699;BME280;64313;51.018;13.742;2023-03-14T06:06:01;97500.31;;;10.61;69.89
75699;BME280;64313;51.018;13.742;2023-03-14T06:08:45;97500.53;;;10.59;69.84
75699;BME280;64313;51.018;13.742;2023-03-14T06:11:11;97506.69;;;10.60;69.69
75699;BME280;64313;51.018;13.742;2023-03-14T06:13:36;97507.50;;;10.60;70.14
75699;BME280;64313;51.018;13.742;2023-03-14T06:16:04;97501.09;;;10.61;70.21
75699;BME280;64313;51.018;13.742;2023-03-14T06:18:30;97509.13;;;10.61;68.93
75699;BME280;64313;51.018;13.742;2023-03-14T06:20:56;97511.78;;;10.61;70.15
75699;BME280;64313;51.018;13.742;2023-03-14T06:23:25;97532.09;;;10.63;69.83
75699;BME280;64313;51.018;13.742;2023-03-14T06:25:51;97530.50;;;10.61;69.77
75699;BME280;64313;51.018;13.742;2023-03-14T06:28:17;97530.50;;;10.61;69.51
75699;BME280;64313;51.018;13.742;2023-03-14T06:30:42;97535.84;;;10.61;69.97
75699;BME280;64313;51.018;13.742;2023-03-14T06:33:10;97548.91;;;10.63;69.81
75699;BME280;64313;51.018;13.742;2023-03-14T06:35:35;97547.09;;;10.64;69.64
75699;BME280;64313;51.018;13.742;2023-03-14T06:38:01;97541.97;;;10.62;69.66
75699;BME280;64313;51.018;13.742;2023-03-14T06:40:26;97548.91;;;10.63;69.23
75699;BME280;64313;51.018;13.742;2023-03-14T06:42:57;97559.59;;;10.63;69.29
75699;BME280;64313;51.018;13.742;2023-03-14T06:45:25;97563.34;;;10.62;69.75
75699;BME280;64313;51.018;13.742;2023-03-14T06:47:51;97578.06;;;10.65;69.89
75699;BME280;64313;51.018;13.742;2023-03-14T06:50:20;97572.22;;;10.68;69.73
75699;BME280;64313;51.018;13.742;2023-03-14T06:52:48;97566.88;;;10.68;69.80
75699;BME280;64313;51.018;13.742;2023-03-14T06:55:16;97566.88;;;10.68;70.30
75699;BME280;64313;51.018;13.742;2023-03-14T06:57:42;97545.50;;;10.68;69.93
75699;BME280;64313;51.018;13.742;2023-03-14T07:00:10;97548.16;;;10.68;69.73
75699;BME280;64313;51.018;13.742;2023-03-14T07:02:36;97562.09;;;10.70;70.10
75699;BME280;64313;51.018;13.742;2023-03-14T07:05:02;97558.34;;;10.71;69.54
75699;BME280;64313;51.018;13.742;2023-03-14T07:07:29;97555.44;;;10.72;69.59
75699;BME280;64313;51.018;13.742;2023-03-14T07:09:54;97559.69;;;10.73;70.03
75699;BME280;64313;51.018;13.742;2023-03-14T07:12:19;97555.19;;;10.74;69.79
75699;BME280;64313;51.018;13.742;2023-03-14T07:14:45;97562.38;;;10.73;69.75
75699;BME280;64313;51.018;13.742;2023-03-14T07:17:10;97565.03;;;10.73;70.00
75699;BME280;64313;51.018;13.742;2023-03-14T07:19:39;97564.00;;;10.74;69.78
75699;BME280;64313;51.018;13.742;2023-03-14T07:22:06;97572.03;;;10.74;70.15
75699;BME280;64313;51.018;13.742;2023-03-14T07:24:31;97569.06;;;10.76;70.11
75699;BME280;64313;51.018;13.742;2023-03-14T07:26:57;97578.44;;;10.78;70.36
75699;BME280;64313;51.018;13.742;2023-03-14T07:32:42;97567.75;;;10.78;70.07
75699;BME280;64313;51.018;13.742;2023-03-14T07:35:12;97578.22;;;10.80;70.08
75699;BME280;64313;51.018;13.742;2023-03-14T07:37:42;97575.53;;;10.80;69.96
75699;BME280;64313;51.018;13.742;2023-03-14T07:40:15;97568.31;;;10.80;70.14
75699;BME280;64313;51.018;13.742;2023-03-14T07:48:20;97574.78;;;10.85;70.16
75699;BME280;64313;51.018;13.742;2023-03-14T08:13:22;97554.63;;;11.04;68.32
75699;BME280;64313;51.018;13.742;2023-03-14T08:21:46;97573.63;;;11.08;68.76
75699;BME280;64313;51.018;13.742;2023-03-14T08:24:17;97567.22;;;11.09;67.59
75699;BME280;64313;51.018;13.742;2023-03-14T08:26:43;97567.53;;;11.12;67.99
75699;BME280;64313;51.018;13.742;2023-03-14T08:29:08;97566.22;;;11.15;66.91
75699;BME280;64313;51.018;13.742;2023-03-14T08:31:36;97569.44;;;11.17;67.41
75699;BME280;64313;51.018;13.742;2023-03-14T08:39:44;97552.44;;;11.33;65.67
75699;BME280;64313;51.018;13.742;2023-03-14T08:45:31;97554.63;;;11.41;65.10
75699;BME280;64313;51.018;13.742;2023-03-14T11:31:44;97549.84;;;11.91;63.21
75699;BME280;64313;51.018;13.742;2023-03-14T11:39:20;97536.22;;;12.03;63.11
75699;BME280;64313;51.018;13.742;2023-03-14T11:44:49;97538.16;;;12.12;62.63
75699;BME280;64313;51.018;13.742;2023-03-14T11:47:37;97532.00;;;12.17;62.13
75699;BME280;64313;51.018;13.742;2023-03-14T11:50:13;97523.44;;;12.20;61.95
75699;BME280;64313;51.018;13.742;2023-03-14T12:11:12;97506.56;;;12.20;60.74
75699;BME280;64313;51.018;13.742;2023-03-14T12:13:39;97504.94;;;12.24;60.76
75699;BME280;64313;51.018;13.742;2023-03-14T12:18:52;97499.59;;;12.29;61.61
75699;BME280;64313;51.018;13.742;2023-03-14T12:21:18;97494.53;;;12.32;60.88
75699;BME280;64313;51.018;13.742;2023-03-14T12:23:53;97487.56;;;12.37;61.49
75699;BME280;64313;51.018;13.742;2023-03-14T12:26:25;97483.28;;;12.41;61.13
75699;BME280;64313;51.018;13.742;2023-03-14T12:28:52;97484.63;;;12.43;61.77
75699;BME280;64313;51.018;13.742;2023-03-14T12:31:35;97480.88;;;12.49;61.53
75699;BME280;64313;51.018;13.742;2023-03-14T12:36:54;97483.56;;;12.60;61.95
75699;BME280;64313;51.018;13.742;2023-03-14T12:45:15;97494.81;;;12.72;61.67
75699;BME280;64313;51.018;13.742;2023-03-14T12:48:01;97495.66;;;12.77;61.80
75699;BME280;64313;51.018;13.742;2023-03-14T12:50:35;97498.34;;;12.88;60.47
75699;BME280;64313;51.018;13.742;2023-03-14T12:53:06;97497.50;;;12.92;60.84
75699;BME280;64313;51.018;13.742;2023-03-14T12:55:33;97483.03;;;12.98;59.66
75699;BME280;64313;51.018;13.742;2023-03-14T12:58:23;97472.31;;;13.04;60.37
75699;BME280;64313;51.018;13.742;2023-03-14T13:01:03;97472.03;;;13.15;60.42
75699;BME280;64313;51.018;13.742;2023-03-14T13:04:02;97459.38;;;13.26;60.14
75699;BME280;64313;51.018;13.742;2023-03-14T13:11:53;97462.28;;;13.45;58.38
75699;BME280;64313;51.018;13.742;2023-03-14T13:14:19;97462.56;;;13.54;57.51
75699;BME280;64313;51.018;13.742;2023-03-14T13:16:46;97458.22;;;13.58;57.93
75699;BME280;64313;51.018;13.742;2023-03-14T13:19:41;97452.56;;;13.64;57.06
75699;BME280;64313;51.018;13.742;2023-03-14T13:22:21;97453.91;;;13.67;57.45
75699;BME280;64313;51.018;13.742;2023-03-14T13:24:47;97453.63;;;13.69;57.35
75699;BME280;64313;51.018;13.742;2023-03-14T13:27:19;97462.75;;;13.68;57.57
75699;BME280;64313;51.018;13.742;2023-03-14T13:29:50;97459.28;;;13.67;57.36
75699;BME280;64313;51.018;13.742;2023-03-14T13:32:26;97454.97;;;13.71;58.43
75699;BME280;64313;51.018;13.742;2023-03-14T13:34:55;97442.88;;;13.74;58.49
75699;BME280;64313;51.018;13.742;2023-03-14T13:37:25;97443.91;;;13.78;57.95
75699;BME280;64313;51.018;13.742;2023-03-14T13:39:56;97439.06;;;13.80;57.75
75699;BME280;64313;51.018;13.742;2023-03-14T13:42:25;97437.47;;;13.84;57.51
75699;BME280;64313;51.018;13.742;2023-03-14T13:44:53;97450.84;;;13.89;57.11
75699;BME280;64313;51.018;13.742;2023-03-14T13:47:21;97438.22;;;13.90;57.29
75699;BME280;64313;51.018;13.742;2023-03-14T13:49:48;97444.94;;;13.87;56.84
75699;BME280;64313;51.018;13.742;2023-03-14T13:52:41;97448.19;;;13.84;56.78
75699;BME280;64313;51.018;13.742;2023-03-14T13:55:14;97434.25;;;13.82;56.71
75699;BME280;64313;51.018;13.742;2023-03-14T13:57:49;97433.19;;;13.78;55.56
75699;BME280;64313;51.018;13.742;2023-03-14T14:00:25;97437.22;;;13.75;56.36
75699;BME280;64313;51.018;13.742;2023-03-14T14:02:56;97431.88;;;13.70;56.08
75699;BME280;64313;51.018;13.742;2023-03-14T14:05:26;97422.78;;;13.66;56.36
75699;BME280;64313;51.018;13.742;2023-03-14T14:07:53;97427.31;;;13.66;57.04
75699;BME280;64313;51.018;13.742;2023-03-14T14:10:20;97435.66;;;13.64;57.26
75699;BME280;64313;51.018;13.742;2023-03-14T14:12:57;97432.72;;;13.60;56.54
75699;BME280;64313;51.018;13.742;2023-03-14T14:15:29;97429.53;;;13.58;57.39
75699;BME280;64313;51.018;13.742;2023-03-14T14:18:04;97439.44;;;13.58;57.33
75699;BME280;64313;51.018;13.742;2023-03-14T14:20:40;97427.91;;;13.57;57.91
75699;BME280;64313;51.018;13.742;2023-03-14T14:23:13;97430.31;;;13.59;57.22
75699;BME280;64313;51.018;13.742;2023-03-14T14:25:39;97431.66;;;13.61;57.44
75699;BME280;64313;51.018;13.742;2023-03-14T14:28:28;97421.94;;;13.66;57.73
75699;BME280;64313;51.018;13.742;2023-03-14T14:33:27;97406.31;;;13.78;57.27
75699;BME280;64313;51.018;13.742;2023-03-14T14:36:00;97408.19;;;13.82;56.91
75699;BME280;64313;51.018;13.742;2023-03-14T14:38:26;97402.00;;;13.87;56.91
75699;BME280;64313;51.018;13.742;2023-03-14T14:40:59;97407.59;;;13.91;55.67
75699;BME280;64313;51.018;13.742;2023-03-14T14:43:27;97399.84;;;13.89;55.83
75699;BME280;64313;51.018;13.742;2023-03-14T14:45:54;97411.38;;;13.90;56.04
75699;BME280;64313;51.018;13.742;2023-03-14T14:48:23;97410.03;;;13.87;55.71
75699;BME280;64313;51.018;13.742;2023-03-14T14:51:03;97402.28;;;13.80;55.44
75699;BME280;64313;51.018;13.742;2023-03-14T14:55:58;97401.25;;;13.76;56.05
75699;BME280;64313;51.018;13.742;2023-03-14T15:00:59;97402.34;;;13.70;56.28
75699;BME280;64313;51.018;13.742;2023-03-14T15:03:31;97398.06;;;13.69;56.27
75699;BME280;64313;51.018;13.742;2023-03-14T15:05:57;97404.22;;;13.70;56.25
75699;BME280;64313;51.018;13.742;2023-03-14T15:08:24;97410.41;;;13.70;56.55
75699;BME280;64313;51.018;13.742;2023-03-14T15:10:54;97397.25;;;13.69;56.49
75699;BME280;64313;51.018;13.742;2023-03-14T15:13:19;97397.25;;;13.69;55.79
75699;BME280;64313;51.018;13.742;2023-03-14T15:15:45;97393.75;;;13.68;56.24
75699;BME280;64313;51.018;13.742;2023-03-14T15:18:16;97404.00;;;13.66;56.33
75699;BME280;64313;51.018;13.742;2023-03-14T15:20:43;97400.47;;;13.66;56.42
75699;BME280;64313;51.018;13.742;2023-03-14T15:23:10;97405.34;;;13.63;56.84
75699;BME280;64313;51.018;13.742;2023-03-14T15:25:36;97404.03;;;13.56;56.45
75699;BME280;64313;51.018;13.742;2023-03-14T15:28:02;97401.63;;;13.54;56.53
75699;BME280;64313;51.018;13.742;2023-03-14T15:30:28;97400.84;;;13.49;56.71
75699;BME280;64313;51.018;13.742;2023-03-14T15:32:53;97413.19;;;13.45;56.99
75699;BME280;64313;51.018;13.742;2023-03-14T15:35:18;97409.72;;;13.44;57.28
75699;BME280;64313;51.018;13.742;2023-03-14T15:37:44;97418.31;;;13.41;57.30
75699;BME280;64313;51.018;13.742;2023-03-14T15:40:11;97416.44;;;13.36;57.49
75699;BME280;64313;51.018;13.742;2023-03-14T15:42:39;97420.50;;;13.34;57.62
75699;BME280;64313;51.018;13.742;2023-03-14T15:45:05;97413.00;;;13.31;58.03
75699;BME280;64313;51.018;13.742;2023-03-14T15:47:30;97425.88;;;13.29;58.09
75699;BME280;64313;51.018;13.742;2023-03-14T15:49:57;97432.56;;;13.26;58.17
75699;BME280;64313;51.018;13.742;2023-03-14T15:52:22;97427.44;;;13.25;57.74
75699;BME280;64313;51.018;13.742;2023-03-14T15:54:48;97435.78;;;13.23;58.14
75699;BME280;64313;51.018;13.742;2023-03-14T15:57:13;97431.78;;;13.20;58.09
75699;BME280;64313;51.018;13.742;2023-03-14T15:59:38;97432.28;;;13.17;58.40
75699;BME280;64313;51.018;13.742;2023-03-14T16:02:04;97437.94;;;13.16;58.35
75699;BME280;64313;51.018;13.742;2023-03-14T16:04:29;97444.66;;;13.13;58.24
75699;BME280;64313;51.018;13.742;2023-03-14T16:06:54;97432.84;;;13.09;58.33
75699;BME280;64313;51.018;13.742;2023-03-14T16:09:19;97443.59;;;13.09;58.46
75699;BME280;64313;51.018;13.742;2023-03-14T16:11:46;97459.13;;;13.07;58.63
75699;BME280;64313;51.018;13.742;2023-03-14T16:14:11;97472.00;;;13.05;58.58
75699;BME280;64313;51.018;13.742;2023-03-14T16:16:36;97469.34;;;13.05;58.80
75699;BME280;64313;51.018;13.742;2023-03-14T16:19:02;97477.91;;;13.02;59.23
75699;BME280;64313;51.018;13.742;2023-03-14T16:21:29;97497.25;;;12.99;59.38
75699;BME280;64313;51.018;13.742;2023-03-14T16:23:58;97507.44;;;12.97;60.10
75699;BME280;64313;51.018;13.742;2023-03-14T16:26:23;97520.28;;;12.90;61.46
75699;BME280;64313;51.018;13.742;2023-03-14T16:28:48;97523.78;;;12.75;62.72
75699;BME280;64313;51.018;13.742;2023-03-14T16:31:17;97532.63;;;12.65;64.21
75699;BME280;64313;51.018;13.742;2023-03-14T16:33:51;97552.72;;;12.52;66.67
75699;BME280;64313;51.018;13.742;2023-03-14T16:36:17;97565.28;;;12.42;67.13
75699;BME280;64313;51.018;13.742;2023-03-14T16:38:43;97569.84;;;12.46;67.99
75699;BME280;64313;51.018;13.742;2023-03-14T16:41:17;97591.25;;;12.41;68.33
75699;BME280;64313;51.018;13.742;2023-03-14T16:43:44;97601.16;;;12.30;70.86
75699;BME280;64313;51.018;13.742;2023-03-14T16:46:15;97637.28;;;12.23;70.59
75699;BME280;64313;51.018;13.742;2023-03-14T16:48:41;97712.34;;;12.33;69.21
75699;BME280;64313;51.018;13.742;2023-03-14T16:51:08;97723.69;;;12.08;65.06
75699;BME280;64313;51.018;13.742;2023-03-14T16:53:34;97742.66;;;11.69;64.67
75699;BME280;64313;51.018;13.742;2023-03-14T16:56:00;97763.22;;;11.36;65.30
75699;BME280;64313;51.018;13.742;2023-03-14T16:58:25;97778.09;;;11.00;66.09
75699;BME280;64313;51.018;13.742;2023-03-14T17:00:51;97785.28;;;10.77;65.98
75699;BME280;64313;51.018;13.742;2023-03-14T17:03:17;97804.31;;;10.59;66.98
75699;BME280;64313;51.018;13.742;2023-03-14T17:05:45;97820.13;;;10.44;67.05
75699;BME280;64313;51.018;13.742;2023-03-14T17:08:11;97840.75;;;10.31;67.58
75699;BME280;64313;51.018;13.742;2023-03-14T17:10:36;97853.66;;;10.23;68.19
75699;BME280;64313;51.018;13.742;2023-03-14T17:13:01;97869.50;;;10.12;67.98
75699;BME280;64313;51.018;13.742;2023-03-14T17:15:27;97892.50;;;10.13;66.83
75699;BME280;64313;51.018;13.742;2023-03-14T17:17:52;97894.25;;;10.08;66.46
75699;BME280;64313;51.018;13.742;2023-03-14T17:20:17;97928.31;;;9.72;67.13
75699;BME280;64313;51.018;13.742;2023-03-14T17:22:43;97952.72;;;9.52;67.87
75699;BME280;64313;51.018;13.742;2023-03-14T17:25:08;97966.00;;;9.35;67.78
75699;BME280;64313;51.018;13.742;2023-03-14T17:27:33;97985.38;;;9.30;67.54
75699;BME280;64313;51.018;13.742;2023-03-14T17:30:00;98001.72;;;9.22;67.54
75699;BME280;64313;51.018;13.742;2023-03-14T17:32:25;98032.53;;;9.18;67.31